createdAt,value
2019-03-13T00:00:48.246Z,7.59
2019-03-13T00:01:48.532Z,7.59
2019-03-13T00:02:48.830Z,7.58
2019-03-13T00:03:49.128Z,7.58
2019-03-13T00:04:49.445Z,7.62
2019-03-13T00:05:49.743Z,7.74
2019-03-13T00:06:50.025Z,7.69
2019-03-13T00:07:50.376Z,7.67
2019-03-13T00:08:50.605Z,7.67
2019-03-13T00:09:50.935Z,7.78
2019-03-13T00:10:51.247Z,7.74
2019-03-13T00:11:51.523Z,7.67
2019-03-13T00:12:51.821Z,7.78
2019-03-13T00:13:52.139Z,7.80
2019-03-13T00:14:52.442Z,7.70
2019-03-13T00:15:52.770Z,7.84
2019-03-13T00:16:53.001Z,7.80
2019-03-13T00:17:53.309Z,7.80
2019-03-13T00:18:53.630Z,7.88
2019-03-13T00:19:53.944Z,7.87
2019-03-13T00:20:54.210Z,7.98
2019-03-13T00:21:54.495Z,7.88
2019-03-13T00:22:54.827Z,8.01
2019-03-13T00:23:55.153Z,7.91
2019-03-13T00:24:56.207Z,8.02
2019-03-13T00:25:55.718Z,8.09
2019-03-13T00:26:56.008Z,8.05
2019-03-13T00:27:56.319Z,8.05
2019-03-13T00:28:56.637Z,8.08
2019-03-13T00:29:56.946Z,8.08
2019-03-13T00:30:57.239Z,8.06
2019-03-13T00:31:59.517Z,8.11
2019-03-13T00:32:57.928Z,8.21
2019-03-13T00:33:58.141Z,8.17
2019-03-13T00:34:58.449Z,8.20
2019-03-13T00:35:58.746Z,8.18
2019-03-13T00:36:59.014Z,8.17
2019-03-13T00:37:59.330Z,8.20
2019-03-13T00:38:59.643Z,8.23
2019-03-13T00:39:59.977Z,8.23
2019-03-13T00:41:00.302Z,8.21
2019-03-13T00:42:00.485Z,8.21
2019-03-13T00:43:00.818Z,8.20
2019-03-13T00:44:01.147Z,8.28
2019-03-13T00:45:01.448Z,8.26
2019-03-13T00:46:01.748Z,8.24
2019-03-13T00:47:02.044Z,8.24
2019-03-13T00:48:02.341Z,8.24
2019-03-13T00:49:02.694Z,8.31
2019-03-13T00:50:02.925Z,8.23
2019-03-13T00:51:03.243Z,8.31
2019-03-13T00:52:03.543Z,8.32
2019-03-13T00:53:03.839Z,8.31
2019-03-13T00:54:04.157Z,8.26
2019-03-13T00:55:04.452Z,8.34
2019-03-13T00:56:04.748Z,8.32
2019-03-13T00:57:05.124Z,8.42
2019-03-13T00:58:05.384Z,8.38
2019-03-13T00:59:05.658Z,8.42
2019-03-13T01:00:06.010Z,8.28
2019-03-13T01:01:06.251Z,8.35
2019-03-13T01:02:06.555Z,8.41
2019-03-13T01:03:06.831Z,8.44
2019-03-13T01:04:07.154Z,8.34
2019-03-13T01:05:07.450Z,8.36
2019-03-13T01:06:07.836Z,8.46
2019-03-13T01:07:08.049Z,8.36
2019-03-13T01:08:08.333Z,8.38
2019-03-13T01:09:08.650Z,8.49
2019-03-13T01:10:08.911Z,8.46
2019-03-13T01:11:09.219Z,8.41
2019-03-13T01:12:09.541Z,8.42
2019-03-13T01:13:09.829Z,8.34
2019-03-13T01:14:10.261Z,8.44
2019-03-13T01:15:10.401Z,8.57
2019-03-13T01:16:10.730Z,8.49
2019-03-13T01:17:11.050Z,8.57
2019-03-13T01:18:11.336Z,8.38
2019-03-13T01:19:11.892Z,8.44
2019-03-13T01:20:11.930Z,8.42
2019-03-13T01:21:12.245Z,8.42
2019-03-13T01:22:12.578Z,8.50
2019-03-13T01:23:12.813Z,8.44
2019-03-13T01:24:13.139Z,8.46
2019-03-13T01:25:13.418Z,8.45
2019-03-13T01:26:13.727Z,8.49
2019-03-13T01:27:14.035Z,8.50
2019-03-13T01:28:14.302Z,8.41
2019-03-13T01:29:14.629Z,8.42
2019-03-13T01:30:14.978Z,8.52
2019-03-13T01:31:15.207Z,8.49
2019-03-13T01:32:15.524Z,8.42
2019-03-13T01:33:15.798Z,8.42
2019-03-13T01:34:16.114Z,8.54
2019-03-13T01:35:16.418Z,8.50
2019-03-13T01:36:16.713Z,8.42
2019-03-13T01:37:17.034Z,8.52
2019-03-13T01:38:17.322Z,8.52
2019-03-13T01:39:17.666Z,8.45
2019-03-13T01:40:17.905Z,8.44
2019-03-13T01:41:18.215Z,8.38
2019-03-13T01:42:18.525Z,8.41
2019-03-13T01:43:18.805Z,8.50
2019-03-13T01:44:19.088Z,8.46
2019-03-13T01:45:19.387Z,8.28
2019-03-13T01:46:19.709Z,8.36
2019-03-13T01:47:20.135Z,8.26
2019-03-13T01:48:20.296Z,8.27
2019-03-13T01:49:20.587Z,8.16
2019-03-13T01:50:20.922Z,8.02
2019-03-13T01:51:21.245Z,8.02
2019-03-13T01:52:21.545Z,7.91
2019-03-13T01:53:21.844Z,7.84
2019-03-13T01:54:22.135Z,7.80
2019-03-13T01:55:22.519Z,7.75
2019-03-13T01:56:22.742Z,7.83
2019-03-13T01:57:23.048Z,7.70
2019-03-13T01:58:23.338Z,7.72
2019-03-13T01:59:23.639Z,7.62
2019-03-13T02:00:23.953Z,7.66
2019-03-13T02:01:24.237Z,7.56
2019-03-13T02:02:24.554Z,7.59
2019-03-13T02:03:24.894Z,7.55
2019-03-13T02:04:25.116Z,7.58
2019-03-13T02:05:25.434Z,7.48
2019-03-13T02:06:25.724Z,7.47
2019-03-13T02:07:26.019Z,7.43
2019-03-13T02:08:26.313Z,7.43
2019-03-13T02:09:26.619Z,7.48
2019-03-13T02:10:26.951Z,7.32
2019-03-13T02:11:27.252Z,7.29
2019-03-13T02:12:27.551Z,7.31
2019-03-13T02:13:27.806Z,7.22
2019-03-13T02:14:28.121Z,7.18
2019-03-13T02:15:28.437Z,7.18
2019-03-13T02:16:28.726Z,7.10
2019-03-13T02:17:29.037Z,7.14
2019-03-13T02:18:29.294Z,7.00
2019-03-13T02:19:29.624Z,6.93
2019-03-13T02:20:30.055Z,6.97
2019-03-13T02:21:30.245Z,7.07
2019-03-13T02:22:30.515Z,6.90
2019-03-13T02:23:30.810Z,6.92
2019-03-13T02:24:31.125Z,6.92
2019-03-13T02:25:31.440Z,6.87
2019-03-13T02:26:31.736Z,6.82
2019-03-13T02:27:32.048Z,6.90
2019-03-13T02:28:32.445Z,6.78
2019-03-13T02:29:32.615Z,6.85
2019-03-13T02:30:32.941Z,6.80
2019-03-13T02:31:33.228Z,6.74
2019-03-13T02:32:33.541Z,6.82
2019-03-13T02:33:33.832Z,6.82
2019-03-13T02:34:34.104Z,6.83
2019-03-13T02:35:34.432Z,6.75
2019-03-13T02:36:34.775Z,6.83
2019-03-13T02:37:35.011Z,6.78
2019-03-13T02:38:35.302Z,6.74
2019-03-13T02:39:35.585Z,6.78
2019-03-13T02:40:35.904Z,6.77
2019-03-13T02:41:36.212Z,6.82
2019-03-13T02:42:36.511Z,6.71
2019-03-13T02:43:36.796Z,6.77
2019-03-13T02:44:37.132Z,6.77
2019-03-13T02:45:37.403Z,6.77
2019-03-13T02:46:37.701Z,6.72
2019-03-13T02:47:38.016Z,6.72
2019-03-13T02:48:38.296Z,6.67
2019-03-13T02:49:38.598Z,6.70
2019-03-13T02:50:38.915Z,6.67
2019-03-13T02:51:39.189Z,6.71
2019-03-13T02:52:39.541Z,6.68
2019-03-13T02:53:39.923Z,6.68
2019-03-13T02:54:40.118Z,6.78
2019-03-13T02:55:40.436Z,6.71
2019-03-13T02:56:40.709Z,6.74
2019-03-13T02:57:41.016Z,6.71
2019-03-13T02:58:41.570Z,6.56
2019-03-13T02:59:41.630Z,6.57
2019-03-13T03:00:41.943Z,6.56
2019-03-13T03:01:42.388Z,6.54
2019-03-13T03:02:42.525Z,6.62
2019-03-13T03:03:42.846Z,6.64
2019-03-13T03:04:43.141Z,6.57
2019-03-13T03:05:43.477Z,6.60
2019-03-13T03:06:43.734Z,6.54
2019-03-13T03:07:44.003Z,6.57
2019-03-13T03:08:44.341Z,6.64
2019-03-13T03:09:44.700Z,6.64
2019-03-13T03:10:44.947Z,6.60
2019-03-13T03:11:45.238Z,6.59
2019-03-13T03:12:45.526Z,6.65
2019-03-13T03:13:45.825Z,6.64
2019-03-13T03:14:46.135Z,6.54
2019-03-13T03:15:46.442Z,6.60
2019-03-13T03:16:46.756Z,6.59
2019-03-13T03:17:47.102Z,6.60
2019-03-13T03:18:47.298Z,6.57
2019-03-13T03:19:47.593Z,6.60
2019-03-13T03:20:47.923Z,6.59
2019-03-13T03:21:48.234Z,6.53
2019-03-13T03:22:48.515Z,6.53
2019-03-13T03:23:48.826Z,6.54
2019-03-13T03:24:49.114Z,6.62
2019-03-13T03:25:49.440Z,6.60
2019-03-13T03:26:49.778Z,6.64
2019-03-13T03:27:50.022Z,6.64
2019-03-13T03:28:50.328Z,6.59
2019-03-13T03:29:50.609Z,6.64
2019-03-13T03:30:50.917Z,6.75
2019-03-13T03:31:51.395Z,6.71
2019-03-13T03:32:51.509Z,6.68
2019-03-13T03:33:51.833Z,6.74
2019-03-13T03:34:52.251Z,6.71
2019-03-13T03:35:52.435Z,6.68
2019-03-13T03:36:52.763Z,6.78
2019-03-13T03:37:53.027Z,6.78
2019-03-13T03:38:53.348Z,6.80
2019-03-13T03:39:53.632Z,6.92
2019-03-13T03:40:53.948Z,6.96
2019-03-13T03:41:54.239Z,6.87
2019-03-13T03:42:54.632Z,7.00
2019-03-13T03:43:54.836Z,6.96
2019-03-13T03:44:55.134Z,6.90
2019-03-13T03:45:55.438Z,6.85
2019-03-13T03:46:55.704Z,6.87
2019-03-13T03:47:56.020Z,6.85
2019-03-13T03:48:56.353Z,6.80
2019-03-13T03:49:56.659Z,6.80
2019-03-13T03:50:56.986Z,6.82
2019-03-13T03:51:57.212Z,6.82
2019-03-13T03:52:57.514Z,6.74
2019-03-13T03:53:57.839Z,6.75
2019-03-13T03:54:58.135Z,6.74
2019-03-13T03:55:58.415Z,6.77
2019-03-13T03:56:58.714Z,6.72
2019-03-13T03:57:59.030Z,6.74
2019-03-13T03:58:59.373Z,6.72
2019-03-13T03:59:59.668Z,6.74
2019-03-13T04:00:59.914Z,6.71
2019-03-13T04:02:00.241Z,6.68
2019-03-13T04:03:00.645Z,6.71
2019-03-13T04:04:00.860Z,6.71
2019-03-13T04:05:01.134Z,6.59
2019-03-13T04:06:01.432Z,6.68
2019-03-13T04:07:01.777Z,6.57
2019-03-13T04:08:02.206Z,6.70
2019-03-13T04:09:02.364Z,6.59
2019-03-13T04:10:02.653Z,6.57
2019-03-13T04:11:02.972Z,6.64
2019-03-13T04:12:03.286Z,6.65
2019-03-13T04:13:03.605Z,6.60
2019-03-13T04:14:03.879Z,6.57
2019-03-13T04:15:04.145Z,6.50
2019-03-13T04:16:04.559Z,6.59
2019-03-13T04:17:04.773Z,6.50
2019-03-13T04:18:05.070Z,6.50
2019-03-13T04:19:05.390Z,6.52
2019-03-13T04:20:05.651Z,6.53
2019-03-13T04:21:05.966Z,6.52
2019-03-13T04:22:06.268Z,6.50
2019-03-13T04:23:06.576Z,6.50
2019-03-13T04:24:06.945Z,6.46
2019-03-13T04:25:07.148Z,6.39
2019-03-13T04:26:07.472Z,6.38
2019-03-13T04:27:07.760Z,6.36
2019-03-13T04:28:08.061Z,6.38
2019-03-13T04:29:08.365Z,6.38
2019-03-13T04:30:08.656Z,6.39
2019-03-13T04:31:08.950Z,6.36
2019-03-13T04:32:09.286Z,6.35
2019-03-13T04:33:09.537Z,6.35
2019-03-13T04:34:09.849Z,6.34
2019-03-13T04:35:10.143Z,6.35
2019-03-13T04:36:10.442Z,6.32
2019-03-13T04:37:10.976Z,6.35
2019-03-13T04:38:11.037Z,6.36
2019-03-13T04:39:11.362Z,6.36
2019-03-13T04:40:11.657Z,6.26
2019-03-13T04:41:12.046Z,6.28
2019-03-13T04:42:12.236Z,6.31
2019-03-13T04:43:12.528Z,6.29
2019-03-13T04:44:12.854Z,6.34
2019-03-13T04:45:13.135Z,6.35
2019-03-13T04:46:13.437Z,6.34
2019-03-13T04:47:13.750Z,6.25
2019-03-13T04:48:14.043Z,6.16
2019-03-13T04:49:14.462Z,6.16
2019-03-13T04:50:14.630Z,6.16
2019-03-13T04:51:14.925Z,6.13
2019-03-13T04:52:15.243Z,6.16
2019-03-13T04:53:15.521Z,6.22
2019-03-13T04:54:15.838Z,6.10
2019-03-13T04:55:16.131Z,6.15
2019-03-13T04:56:16.433Z,6.13
2019-03-13T04:57:16.817Z,6.17
2019-03-13T04:58:17.023Z,6.13
2019-03-13T04:59:17.297Z,6.15
2019-03-13T05:00:17.625Z,6.13
2019-03-13T05:01:17.919Z,6.16
2019-03-13T05:02:18.235Z,6.10
2019-03-13T05:03:18.527Z,6.07
2019-03-13T05:04:18.822Z,6.02
2019-03-13T05:05:19.171Z,6.09
2019-03-13T05:06:19.402Z,5.99
2019-03-13T05:07:19.725Z,6.09
2019-03-13T05:08:20.018Z,5.99
2019-03-13T05:09:20.300Z,5.95
2019-03-13T05:10:20.614Z,5.94
2019-03-13T05:11:20.904Z,5.99
2019-03-13T05:12:21.240Z,5.98
2019-03-13T05:13:21.594Z,5.95
2019-03-13T05:14:21.888Z,5.97
2019-03-13T05:15:22.135Z,5.91
2019-03-13T05:16:22.388Z,5.92
2019-03-13T05:17:22.726Z,5.95
2019-03-13T05:18:23.048Z,5.94
2019-03-13T05:19:23.323Z,5.88
2019-03-13T05:20:23.631Z,5.88
2019-03-13T05:21:23.970Z,5.90
2019-03-13T05:22:24.325Z,5.87
2019-03-13T05:23:24.540Z,5.83
2019-03-13T05:24:24.817Z,5.83
2019-03-13T05:25:25.153Z,5.88
2019-03-13T05:26:25.419Z,5.74
2019-03-13T05:27:25.712Z,5.77
2019-03-13T05:28:26.012Z,5.64
2019-03-13T05:29:26.329Z,5.69
2019-03-13T05:30:26.798Z,5.61
2019-03-13T05:31:26.961Z,5.61
2019-03-13T05:32:27.257Z,5.61
2019-03-13T05:33:27.567Z,5.54
2019-03-13T05:34:27.874Z,5.59
2019-03-13T05:35:28.175Z,5.49
2019-03-13T05:36:28.456Z,5.51
2019-03-13T05:37:28.776Z,5.44
2019-03-13T05:38:29.117Z,5.54
2019-03-13T05:39:29.356Z,5.52
2019-03-13T05:40:29.692Z,5.56
2019-03-13T05:41:29.948Z,5.54
2019-03-13T05:42:30.278Z,5.56
2019-03-13T05:43:30.540Z,5.58
2019-03-13T05:44:30.824Z,5.69
2019-03-13T05:45:31.189Z,5.61
2019-03-13T05:46:31.488Z,5.61
2019-03-13T05:47:31.765Z,5.70
2019-03-13T05:48:32.039Z,5.69
2019-03-13T05:49:32.338Z,5.73
2019-03-13T05:50:32.652Z,5.65
2019-03-13T05:51:32.941Z,5.55
2019-03-13T05:52:33.262Z,5.61
2019-03-13T05:53:33.533Z,5.58
2019-03-13T05:54:33.885Z,5.61
2019-03-13T05:55:34.263Z,5.59
2019-03-13T05:56:34.480Z,5.59
2019-03-13T05:57:34.793Z,5.56
2019-03-13T05:58:35.073Z,5.47
2019-03-13T05:59:35.382Z,5.54
2019-03-13T06:00:35.693Z,5.55
2019-03-13T06:01:35.955Z,5.46
2019-03-13T06:02:36.291Z,5.44
2019-03-13T06:03:36.730Z,5.43
2019-03-13T06:04:36.878Z,5.41
2019-03-13T06:05:37.185Z,5.31
2019-03-13T06:06:37.455Z,5.31
2019-03-13T06:07:37.778Z,5.28
2019-03-13T06:08:38.078Z,5.34
2019-03-13T06:09:38.378Z,5.49
2019-03-13T06:10:38.695Z,5.58
2019-03-13T06:11:39.062Z,5.51
2019-03-13T06:12:39.265Z,5.67
2019-03-13T06:13:39.828Z,5.56
2019-03-13T06:14:40.126Z,5.69
2019-03-13T06:15:40.445Z,5.69
2019-03-13T06:16:40.723Z,5.64
2019-03-13T06:17:41.008Z,5.67
2019-03-13T06:18:41.326Z,5.79
2019-03-13T06:19:41.704Z,5.77
2019-03-13T06:20:41.947Z,5.76
2019-03-13T06:21:42.228Z,5.92
2019-03-13T06:22:42.522Z,5.80
2019-03-13T06:23:42.837Z,5.87
2019-03-13T06:24:43.116Z,5.90
2019-03-13T06:25:43.444Z,5.88
2019-03-13T06:26:43.786Z,5.91
2019-03-13T06:27:45.903Z,5.97
2019-03-13T06:28:44.376Z,5.97
2019-03-13T06:29:44.635Z,5.95
2019-03-13T06:30:44.947Z,5.94
2019-03-13T06:31:45.239Z,5.91
2019-03-13T06:32:45.540Z,5.97
2019-03-13T06:33:45.853Z,5.99
2019-03-13T06:34:46.144Z,6.01
2019-03-13T06:35:46.458Z,5.95
2019-03-13T06:36:46.799Z,6.02
2019-03-13T06:37:47.029Z,6.10
2019-03-13T06:38:47.344Z,6.10
2019-03-13T06:39:47.620Z,6.10
2019-03-13T06:40:47.934Z,6.12
2019-03-13T06:41:48.230Z,6.12
2019-03-13T06:42:48.525Z,6.12
2019-03-13T06:43:48.850Z,6.10
2019-03-13T06:44:49.243Z,6.09
2019-03-13T06:45:49.436Z,6.05
2019-03-13T06:46:49.718Z,6.09
2019-03-13T06:47:50.016Z,6.09
2019-03-13T06:48:50.333Z,6.16
2019-03-13T06:49:50.616Z,6.10
2019-03-13T06:50:50.916Z,6.17
2019-03-13T06:51:51.196Z,6.31
2019-03-13T06:52:51.558Z,6.28
2019-03-13T06:53:51.808Z,6.22
2019-03-13T06:54:52.114Z,6.31
2019-03-13T06:55:52.413Z,6.34
2019-03-13T06:56:52.694Z,6.28
2019-03-13T06:57:52.978Z,6.35
2019-03-13T06:58:53.304Z,6.38
2019-03-13T06:59:53.593Z,6.28
2019-03-13T07:00:53.956Z,6.32
2019-03-13T07:01:54.172Z,6.43
2019-03-13T07:02:54.470Z,6.36
2019-03-13T07:03:54.794Z,6.39
2019-03-13T07:04:55.101Z,6.49
2019-03-13T07:05:55.396Z,6.47
2019-03-13T07:06:55.696Z,6.53
2019-03-13T07:07:55.968Z,6.47
2019-03-13T07:08:56.291Z,6.50
2019-03-13T07:09:56.669Z,6.44
2019-03-13T07:10:56.887Z,6.36
2019-03-13T07:11:57.175Z,6.34
2019-03-13T07:12:57.468Z,6.29
2019-03-13T07:13:57.776Z,6.29
2019-03-13T07:14:58.073Z,6.35
2019-03-13T07:15:58.380Z,6.32
2019-03-13T07:16:59.153Z,6.38
2019-03-13T07:17:59.062Z,6.36
2019-03-13T07:18:59.262Z,6.36
2019-03-13T07:19:59.567Z,6.47
2019-03-13T07:20:59.865Z,6.46
2019-03-13T07:22:00.161Z,6.60
2019-03-13T07:23:00.458Z,6.75
2019-03-13T07:24:00.774Z,6.82
2019-03-13T07:25:01.066Z,6.72
2019-03-13T07:26:01.428Z,6.80
2019-03-13T07:27:01.661Z,6.70
2019-03-13T07:28:01.958Z,6.75
2019-03-13T07:29:11.549Z,6.78
2019-03-13T07:30:03.576Z,6.82
2019-03-13T07:31:02.842Z,6.89
2019-03-13T07:32:03.167Z,6.86
2019-03-13T07:33:03.469Z,6.92
2019-03-13T07:34:03.821Z,7.00
2019-03-13T07:35:04.068Z,6.85
2019-03-13T07:36:04.332Z,6.96
2019-03-13T07:37:04.673Z,6.93
2019-03-13T07:38:04.978Z,6.87
2019-03-13T07:39:05.279Z,6.89
2019-03-13T07:40:05.565Z,6.86
2019-03-13T07:41:05.855Z,6.89
2019-03-13T07:42:06.194Z,6.85
2019-03-13T07:43:06.506Z,6.74
2019-03-13T07:44:06.773Z,6.71
2019-03-13T07:45:07.054Z,6.68
2019-03-13T07:46:07.352Z,6.75
2019-03-13T07:47:07.654Z,6.74
2019-03-13T07:48:07.951Z,6.74
2019-03-13T07:49:08.270Z,6.89
2019-03-13T07:50:08.561Z,6.83
2019-03-13T07:51:08.960Z,6.83
2019-03-13T07:52:09.388Z,6.85
2019-03-13T07:53:09.476Z,6.97
2019-03-13T07:54:09.786Z,7.07
2019-03-13T07:55:10.069Z,7.28
2019-03-13T07:56:10.365Z,7.36
2019-03-13T07:57:10.684Z,7.39
2019-03-13T07:58:10.969Z,7.32
2019-03-13T07:59:11.364Z,7.46
2019-03-13T08:00:11.554Z,7.43
2019-03-13T08:01:11.855Z,7.47
2019-03-13T08:02:12.164Z,7.43
2019-03-13T08:03:12.479Z,7.47
2019-03-13T08:04:12.751Z,7.47
2019-03-13T08:05:13.058Z,7.43
2019-03-13T08:06:13.350Z,7.44
2019-03-13T08:07:13.715Z,7.43
2019-03-13T08:08:13.933Z,7.32
2019-03-13T08:09:14.255Z,7.29
2019-03-13T08:10:14.516Z,7.39
2019-03-13T08:11:14.839Z,7.29
2019-03-13T08:12:15.146Z,7.36
2019-03-13T08:13:15.420Z,7.31
2019-03-13T08:14:15.739Z,7.33
2019-03-13T08:15:16.034Z,7.32
2019-03-13T08:16:16.329Z,7.31
2019-03-13T08:17:16.654Z,7.29
2019-03-13T08:18:16.928Z,7.32
2019-03-13T08:19:17.301Z,7.33
2019-03-13T08:20:17.538Z,7.43
2019-03-13T08:21:17.839Z,7.41
2019-03-13T08:22:18.147Z,7.40
2019-03-13T08:23:18.472Z,7.32
2019-03-13T08:24:18.885Z,7.40
2019-03-13T08:25:19.040Z,7.41
2019-03-13T08:26:19.357Z,7.55
2019-03-13T08:27:19.660Z,7.61
2019-03-13T08:28:19.935Z,7.61
2019-03-13T08:29:20.239Z,7.59
2019-03-13T08:30:20.706Z,7.59
2019-03-13T08:31:20.850Z,7.58
2019-03-13T08:32:21.242Z,7.55
2019-03-13T08:33:21.440Z,7.59
2019-03-13T08:34:21.718Z,7.75
2019-03-13T08:35:22.039Z,7.69
2019-03-13T08:36:22.341Z,7.83
2019-03-13T08:37:22.658Z,7.87
2019-03-13T08:38:22.959Z,8.08
2019-03-13T08:39:23.225Z,7.95
2019-03-13T08:40:23.613Z,7.88
2019-03-13T08:41:23.817Z,8.06
2019-03-13T08:42:24.124Z,8.09
2019-03-13T08:43:24.444Z,8.17
2019-03-13T08:44:24.732Z,8.32
2019-03-13T08:45:25.051Z,8.35
2019-03-13T08:46:25.333Z,8.36
2019-03-13T08:47:25.659Z,8.44
2019-03-13T08:48:25.971Z,8.44
2019-03-13T08:49:26.205Z,8.49
2019-03-13T08:50:26.528Z,8.52
2019-03-13T08:51:26.817Z,8.71
2019-03-13T08:52:27.138Z,8.66
2019-03-13T08:53:27.440Z,8.69
2019-03-13T08:54:27.706Z,8.63
2019-03-13T08:55:28.030Z,8.61
2019-03-13T08:56:28.357Z,8.74
2019-03-13T08:57:28.700Z,8.66
2019-03-13T08:58:28.900Z,8.49
2019-03-13T08:59:29.196Z,8.45
2019-03-13T09:00:29.522Z,8.44
2019-03-13T09:01:29.805Z,8.54
2019-03-13T09:02:30.161Z,8.50
2019-03-13T09:03:30.410Z,8.71
2019-03-13T09:04:30.706Z,8.72
2019-03-13T09:05:31.141Z,8.78
2019-03-13T09:06:31.314Z,8.75
2019-03-13T09:07:31.660Z,8.77
2019-03-13T09:08:31.905Z,8.87
2019-03-13T09:09:32.227Z,8.87
2019-03-13T09:10:32.508Z,8.79
2019-03-13T09:11:32.815Z,8.75
2019-03-13T09:12:33.124Z,8.87
2019-03-13T09:13:33.494Z,8.93
2019-03-13T09:14:33.703Z,9.02
2019-03-13T09:15:33.999Z,9.15
2019-03-13T09:16:34.288Z,9.19
2019-03-13T09:17:34.634Z,9.34
2019-03-13T09:18:34.907Z,9.33
2019-03-13T09:19:35.206Z,9.39
2019-03-13T09:20:35.524Z,9.34
2019-03-13T09:21:35.824Z,9.40
2019-03-13T09:22:36.112Z,9.48
2019-03-13T09:23:36.390Z,9.42
2019-03-13T09:24:36.688Z,9.22
2019-03-13T09:25:37.006Z,9.22
2019-03-13T09:26:37.279Z,9.27
2019-03-13T09:27:37.590Z,9.19
2019-03-13T09:28:37.861Z,9.19
2019-03-13T09:29:38.284Z,9.19
2019-03-13T09:30:38.510Z,9.19
2019-03-13T09:31:39.017Z,9.13
2019-03-13T09:32:39.081Z,9.03
2019-03-13T09:33:39.353Z,9.00
2019-03-13T09:34:39.675Z,8.92
2019-03-13T09:35:39.990Z,9.00
2019-03-13T09:36:40.271Z,9.21
2019-03-13T09:37:40.597Z,9.29
2019-03-13T09:38:41.019Z,9.19
2019-03-13T09:39:41.191Z,9.27
2019-03-13T09:40:41.508Z,9.39
2019-03-13T09:41:41.785Z,9.24
2019-03-13T09:42:42.109Z,9.33
2019-03-13T09:43:42.401Z,9.36
2019-03-13T09:44:42.678Z,9.29
2019-03-13T09:45:43.012Z,9.33
2019-03-13T09:46:43.422Z,9.48
2019-03-13T09:47:43.614Z,9.39
2019-03-13T09:48:43.915Z,9.62
2019-03-13T09:49:44.173Z,9.73
2019-03-13T09:50:44.513Z,9.66
2019-03-13T09:51:44.805Z,9.73
2019-03-13T09:52:45.092Z,9.91
2019-03-13T09:53:45.427Z,9.92
2019-03-13T09:54:45.716Z,10.02
2019-03-13T09:55:45.993Z,10.03
2019-03-13T09:56:46.292Z,10.09
2019-03-13T09:57:46.594Z,10.10
2019-03-13T09:58:46.917Z,10.21
2019-03-13T09:59:47.188Z,10.33
2019-03-13T10:00:47.507Z,10.28
2019-03-13T10:01:47.770Z,10.43
2019-03-13T10:02:48.129Z,10.39
2019-03-13T10:03:48.388Z,10.28
2019-03-13T10:04:48.670Z,10.42
2019-03-13T10:05:48.992Z,10.36
2019-03-13T10:06:49.252Z,10.42
2019-03-13T10:07:49.580Z,10.45
2019-03-13T10:08:49.911Z,10.48
2019-03-13T10:09:50.188Z,10.55
2019-03-13T10:10:50.513Z,10.49
2019-03-13T10:11:50.880Z,10.58
2019-03-13T10:12:51.082Z,10.62
2019-03-13T10:13:51.405Z,10.58
2019-03-13T10:14:51.678Z,10.43
2019-03-13T10:15:51.994Z,10.43
2019-03-13T10:16:52.276Z,10.48
2019-03-13T10:17:52.559Z,10.43
2019-03-13T10:18:52.908Z,10.58
2019-03-13T10:19:53.290Z,10.55
2019-03-13T10:20:53.511Z,10.67
2019-03-13T10:21:53.787Z,10.79
2019-03-13T10:22:54.062Z,10.84
2019-03-13T10:23:54.416Z,10.68
2019-03-13T10:24:54.686Z,10.61
2019-03-13T10:25:55.002Z,10.48
2019-03-13T10:26:55.290Z,10.46
2019-03-13T10:27:55.669Z,10.45
2019-03-13T10:28:55.893Z,10.55
2019-03-13T10:29:56.172Z,10.67
2019-03-13T10:30:56.488Z,10.65
2019-03-13T10:31:56.765Z,10.83
2019-03-13T10:32:57.064Z,10.80
2019-03-13T10:33:57.376Z,10.82
2019-03-13T10:34:57.647Z,10.82
2019-03-13T10:35:58.002Z,10.83
2019-03-13T10:36:58.250Z,10.80
2019-03-13T10:37:58.559Z,10.86
2019-03-13T10:38:58.880Z,10.90
2019-03-13T10:39:59.125Z,10.89
2019-03-13T10:40:59.439Z,10.94
2019-03-13T10:41:59.772Z,10.97
2019-03-13T10:43:00.068Z,10.98
2019-03-13T10:44:00.699Z,10.92
2019-03-13T10:45:00.763Z,11.07
2019-03-13T10:46:01.005Z,11.08
2019-03-13T10:47:01.336Z,11.10
2019-03-13T10:48:01.617Z,10.89
2019-03-13T10:49:01.984Z,10.92
2019-03-13T10:50:02.233Z,10.97
2019-03-13T10:51:02.517Z,10.84
2019-03-13T10:52:02.842Z,10.79
2019-03-13T10:53:03.247Z,10.89
2019-03-13T10:54:03.478Z,10.86
2019-03-13T10:55:03.734Z,10.77
2019-03-13T10:56:04.009Z,10.69
2019-03-13T10:57:04.339Z,10.75
2019-03-13T10:58:04.624Z,10.77
2019-03-13T10:59:04.954Z,10.62
2019-03-13T11:00:05.217Z,10.80
2019-03-13T11:01:05.593Z,10.84
2019-03-13T11:02:05.836Z,11.10
2019-03-13T11:03:06.110Z,11.05
2019-03-13T11:04:06.444Z,11.10
2019-03-13T11:05:06.723Z,11.12
2019-03-13T11:06:07.014Z,11.08
2019-03-13T11:07:07.314Z,11.12
2019-03-13T11:08:07.602Z,11.00
2019-03-13T11:09:07.997Z,11.05
2019-03-13T11:10:08.438Z,10.98
2019-03-13T11:11:08.494Z,10.94
2019-03-13T11:12:08.813Z,11.07
2019-03-13T11:13:09.097Z,10.98
2019-03-13T11:14:15.397Z,10.95
2019-03-13T11:15:10.701Z,10.86
2019-03-13T11:16:09.992Z,10.89
2019-03-13T11:17:10.369Z,10.84
2019-03-13T11:18:10.566Z,10.77
2019-03-13T11:19:10.875Z,10.69
2019-03-13T11:20:11.197Z,10.79
2019-03-13T11:21:11.480Z,10.72
2019-03-13T11:22:11.797Z,10.72
2019-03-13T11:23:12.077Z,10.84
2019-03-13T11:24:12.395Z,10.82
2019-03-13T11:25:12.710Z,10.97
2019-03-13T11:26:13.058Z,10.95
2019-03-13T11:27:13.298Z,11.04
2019-03-13T11:28:13.572Z,11.07
2019-03-13T11:29:13.885Z,11.10
2019-03-13T11:30:14.192Z,11.19
2019-03-13T11:31:14.468Z,11.16
2019-03-13T11:32:14.786Z,11.15
2019-03-13T11:33:15.074Z,11.25
2019-03-13T11:34:15.450Z,11.22
2019-03-13T11:35:15.670Z,11.35
2019-03-13T11:36:15.964Z,11.41
2019-03-13T11:37:16.274Z,11.48
2019-03-13T11:38:16.555Z,11.55
2019-03-13T11:39:16.873Z,11.48
2019-03-13T11:40:17.173Z,11.34
2019-03-13T11:41:17.456Z,11.41
2019-03-13T11:42:17.881Z,11.41
2019-03-13T11:43:18.047Z,11.37
2019-03-13T11:44:18.349Z,11.41
2019-03-13T11:45:18.648Z,11.49
2019-03-13T11:46:18.941Z,11.51
2019-03-13T11:47:19.257Z,11.44
2019-03-13T11:48:19.547Z,11.41
2019-03-13T11:49:19.839Z,11.41
2019-03-13T11:50:20.216Z,11.15
2019-03-13T11:51:20.464Z,11.15
2019-03-13T11:52:20.751Z,11.10
2019-03-13T11:53:21.051Z,11.01
2019-03-13T11:54:21.348Z,10.98
2019-03-13T11:55:21.678Z,10.95
2019-03-13T11:56:21.954Z,10.90
2019-03-13T11:57:22.354Z,10.83
2019-03-13T11:58:22.589Z,10.83
2019-03-13T11:59:22.879Z,10.84
2019-03-13T12:00:23.200Z,10.86
2019-03-13T12:01:23.483Z,10.79
2019-03-13T12:02:23.800Z,10.75
2019-03-13T12:03:24.072Z,10.72
2019-03-13T12:04:24.363Z,10.67
2019-03-13T12:05:24.694Z,10.65
2019-03-13T12:06:25.011Z,10.55
2019-03-13T12:07:25.381Z,10.43
2019-03-13T12:08:25.557Z,10.46
2019-03-13T12:09:25.872Z,10.48
2019-03-13T12:10:26.189Z,10.34
2019-03-13T12:11:26.503Z,10.23
2019-03-13T12:12:26.787Z,10.34
2019-03-13T12:13:27.070Z,10.24
2019-03-13T12:14:27.347Z,10.27
2019-03-13T12:15:27.771Z,10.30
2019-03-13T12:16:27.995Z,10.27
2019-03-13T12:17:28.273Z,10.21
2019-03-13T12:18:28.561Z,10.28
2019-03-13T12:19:28.874Z,10.24
2019-03-13T12:20:29.176Z,10.25
2019-03-13T12:21:29.485Z,10.21
2019-03-13T12:22:29.779Z,10.10
2019-03-13T12:23:30.134Z,10.07
2019-03-13T12:24:30.323Z,10.17
2019-03-13T12:25:30.643Z,10.10
2019-03-13T12:26:30.960Z,10.15
2019-03-13T12:27:31.254Z,10.07
2019-03-13T12:28:31.537Z,10.06
2019-03-13T12:29:31.845Z,10.09
2019-03-13T12:30:32.154Z,10.09
2019-03-13T12:31:32.487Z,10.10
2019-03-13T12:32:32.743Z,10.20
2019-03-13T12:33:35.278Z,10.27
2019-03-13T12:34:33.317Z,10.31
2019-03-13T12:35:33.633Z,10.33
2019-03-13T12:36:33.919Z,10.24
2019-03-13T12:37:34.236Z,10.30
2019-03-13T12:38:34.523Z,10.23
2019-03-13T12:39:34.844Z,10.24
2019-03-13T12:40:35.193Z,10.21
2019-03-13T12:41:35.417Z,10.20
2019-03-13T12:42:35.728Z,10.21
2019-03-13T12:43:36.015Z,10.23
2019-03-13T12:44:36.317Z,10.23
2019-03-13T12:45:36.629Z,10.28
2019-03-13T12:46:36.912Z,10.34
2019-03-13T12:47:37.238Z,10.30
2019-03-13T12:48:37.644Z,10.33
2019-03-13T12:49:38.039Z,10.36
2019-03-13T12:50:38.133Z,10.25
2019-03-13T12:51:38.413Z,10.28
2019-03-13T12:52:38.718Z,10.17
2019-03-13T12:53:39.035Z,10.17
2019-03-13T12:54:39.315Z,10.24
2019-03-13T12:55:39.644Z,10.13
2019-03-13T12:56:40.010Z,10.10
2019-03-13T12:57:40.218Z,10.09
2019-03-13T12:58:40.521Z,10.07
2019-03-13T12:59:40.839Z,10.05
2019-03-13T13:00:41.154Z,10.05
2019-03-13T13:01:41.447Z,10.10
2019-03-13T13:02:41.744Z,10.17
2019-03-13T13:03:44.881Z,10.12
2019-03-13T13:04:42.391Z,10.13
2019-03-13T13:05:42.631Z,10.18
2019-03-13T13:06:42.923Z,10.20
2019-03-13T13:07:43.227Z,10.09
2019-03-13T13:08:43.544Z,10.12
2019-03-13T13:09:43.817Z,10.07
2019-03-13T13:10:44.119Z,10.06
2019-03-13T13:11:44.412Z,10.03
2019-03-13T13:12:44.803Z,10.07
2019-03-13T13:13:45.024Z,10.06
2019-03-13T13:14:45.320Z,9.94
2019-03-13T13:15:45.646Z,10.00